sensor_id;sensor_type;location;lat;lon;timestamp;P1;durP1;ratioP1;P2;durP2;ratioP2
28437;SDS011;15667;52.376;9.708;2023-09-30T00:01:54;18.27;;;3.78;;
28437;SDS011;15667;52.376;9.708;2023-09-30T00:04:20;14.27;;;3.05;;
28437;SDS011;15667;52.376;9.708;2023-09-30T00:06:45;14.07;;;3.20;;
28437;SDS011;15667;52.376;9.708;2023-09-30T00:09:11;14.38;;;3.03;;
28437;SDS011;15667;52.376;9.708;2023-09-30T00:11:38;16.42;;;3.40;;
28437;SDS011;15667;52.376;9.708;2023-09-30T00:14:04;13.30;;;2.95;;
28437;SDS011;15667;52.376;9.708;2023-09-30T00:16:30;10.73;;;3.22;;
28437;SDS011;15667;52.376;9.708;2023-09-30T00:18:56;19.98;;;3.20;;
28437;SDS011;15667;52.376;9.708;2023-09-30T00:21:23;19.38;;;3.90;;
28437;SDS011;15667;52.376;9.708;2023-09-30T00:23:49;18.42;;;3.28;;
28437;SDS011;15667;52.376;9.708;2023-09-30T00:26:14;18.65;;;3.15;;
28437;SDS011;15667;52.376;9.708;2023-09-30T00:28:40;18.08;;;2.90;;
28437;SDS011;15667;52.376;9.708;2023-09-30T00:31:06;14.90;;;3.45;;
28437;SDS011;15667;52.376;9.708;2023-09-30T00:33:35;17.48;;;4.07;;
28437;SDS011;15667;52.376;9.708;2023-09-30T00:36:08;13.25;;;3.45;;
28437;SDS011;15667;52.376;9.708;2023-09-30T00:38:36;18.65;;;3.25;;
28437;SDS011;15667;52.376;9.708;2023-09-30T00:41:02;14.00;;;3.13;;
28437;SDS011;15667;52.376;9.708;2023-09-30T00:43:27;22.83;;;4.40;;
28437;SDS011;15667;52.376;9.708;2023-09-30T00:46:06;13.75;;;3.00;;
28437;SDS011;15667;52.376;9.708;2023-09-30T00:48:42;14.77;;;3.42;;
28437;SDS011;15667;52.376;9.708;2023-09-30T00:51:08;16.50;;;2.88;;
28437;SDS011;15667;52.376;9.708;2023-09-30T00:53:33;14.15;;;3.25;;
28437;SDS011;15667;52.376;9.708;2023-09-30T00:55:59;19.83;;;3.22;;
28437;SDS011;15667;52.376;9.708;2023-09-30T00:58:25;17.48;;;3.40;;
28437;SDS011;15667;52.376;9.708;2023-09-30T01:00:54;14.27;;;3.05;;
28437;SDS011;15667;52.376;9.708;2023-09-30T01:03:22;15.18;;;3.15;;
28437;SDS011;15667;52.376;9.708;2023-09-30T01:05:48;11.45;;;3.05;;
28437;SDS011;15667;52.376;9.708;2023-09-30T01:08:14;10.95;;;2.85;;
28437;SDS011;15667;52.376;9.708;2023-09-30T01:10:44;18.65;;;3.42;;
28437;SDS011;15667;52.376;9.708;2023-09-30T01:13:10;20.75;;;3.20;;
28437;SDS011;15667;52.376;9.708;2023-09-30T01:15:36;17.52;;;2.55;;
28437;SDS011;15667;52.376;9.708;2023-09-30T01:18:02;16.20;;;3.28;;
28437;SDS011;15667;52.376;9.708;2023-09-30T01:20:28;22.80;;;3.13;;
28437;SDS011;15667;52.376;9.708;2023-09-30T01:22:54;17.00;;;3.05;;
28437;SDS011;15667;52.376;9.708;2023-09-30T01:25:22;19.30;;;3.72;;
28437;SDS011;15667;52.376;9.708;2023-09-30T01:27:47;16.45;;;3.42;;
28437;SDS011;15667;52.376;9.708;2023-09-30T01:30:13;12.15;;;2.88;;
28437;SDS011;15667;52.376;9.708;2023-09-30T01:32:39;11.57;;;2.75;;
28437;SDS011;15667;52.376;9.708;2023-09-30T01:35:05;20.48;;;3.20;;
28437;SDS011;15667;52.376;9.708;2023-09-30T01:37:31;13.65;;;3.05;;
28437;SDS011;15667;52.376;9.708;2023-09-30T01:39:56;13.40;;;3.28;;
28437;SDS011;15667;52.376;9.708;2023-09-30T01:42:22;19.70;;;3.08;;
28437;SDS011;15667;52.376;9.708;2023-09-30T01:44:48;18.20;;;3.10;;
28437;SDS011;15667;52.376;9.708;2023-09-30T01:47:13;18.05;;;3.00;;
28437;SDS011;15667;52.376;9.708;2023-09-30T01:49:39;17.05;;;3.15;;
28437;SDS011;15667;52.376;9.708;2023-09-30T01:52:04;13.93;;;2.60;;
28437;SDS011;15667;52.376;9.708;2023-09-30T01:54:30;20.00;;;3.13;;
28437;SDS011;15667;52.376;9.708;2023-09-30T01:56:56;15.07;;;2.92;;
28437;SDS011;15667;52.376;9.708;2023-09-30T01:59:21;16.23;;;3.05;;
28437;SDS011;15667;52.376;9.708;2023-09-30T02:01:47;12.57;;;2.85;;
28437;SDS011;15667;52.376;9.708;2023-09-30T02:04:14;17.67;;;3.03;;
28437;SDS011;15667;52.376;9.708;2023-09-30T02:06:42;15.77;;;3.03;;
28437;SDS011;15667;52.376;9.708;2023-09-30T02:09:08;19.05;;;3.53;;
28437;SDS011;15667;52.376;9.708;2023-09-30T02:11:37;19.08;;;3.17;;
28437;SDS011;15667;52.376;9.708;2023-09-30T02:14:03;18.30;;;3.08;;
28437;SDS011;15667;52.376;9.708;2023-09-30T02:16:31;13.63;;;2.60;;
28437;SDS011;15667;52.376;9.708;2023-09-30T02:18:58;18.02;;;2.80;;
28437;SDS011;15667;52.376;9.708;2023-09-30T02:21:24;15.85;;;3.17;;
28437;SDS011;15667;52.376;9.708;2023-09-30T02:23:49;16.17;;;2.92;;
28437;SDS011;15667;52.376;9.708;2023-09-30T02:26:19;17.52;;;3.08;;
28437;SDS011;15667;52.376;9.708;2023-09-30T02:28:46;22.35;;;2.83;;
28437;SDS011;15667;52.376;9.708;2023-09-30T02:31:12;16.33;;;3.33;;
28437;SDS011;15667;52.376;9.708;2023-09-30T02:33:38;13.27;;;2.50;;
28437;SDS011;15667;52.376;9.708;2023-09-30T02:36:07;17.50;;;2.72;;
28437;SDS011;15667;52.376;9.708;2023-09-30T02:38:33;18.35;;;2.97;;
28437;SDS011;15667;52.376;9.708;2023-09-30T02:41:02;13.07;;;2.40;;
28437;SDS011;15667;52.376;9.708;2023-09-30T02:43:28;13.70;;;2.72;;
28437;SDS011;15667;52.376;9.708;2023-09-30T02:45:54;19.45;;;2.30;;
28437;SDS011;15667;52.376;9.708;2023-09-30T02:48:19;14.00;;;2.75;;
28437;SDS011;15667;52.376;9.708;2023-09-30T02:50:45;19.20;;;3.22;;
28437;SDS011;15667;52.376;9.708;2023-09-30T02:53:11;15.18;;;2.78;;
28437;SDS011;15667;52.376;9.708;2023-09-30T02:55:38;18.48;;;3.30;;
28437;SDS011;15667;52.376;9.708;2023-09-30T02:58:04;9.93;;;2.83;;
28437;SDS011;15667;52.376;9.708;2023-09-30T03:00:30;18.85;;;4.43;;
28437;SDS011;15667;52.376;9.708;2023-09-30T03:02:59;31.35;;;9.07;;
28437;SDS011;15667;52.376;9.708;2023-09-30T03:05:25;15.85;;;3.45;;
28437;SDS011;15667;52.376;9.708;2023-09-30T03:07:52;38.33;;;13.48;;
28437;SDS011;15667;52.376;9.708;2023-09-30T03:10:20;31.58;;;11.77;;
28437;SDS011;15667;52.376;9.708;2023-09-30T03:12:49;17.48;;;4.07;;
28437;SDS011;15667;52.376;9.708;2023-09-30T03:15:15;14.10;;;3.25;;
28437;SDS011;15667;52.376;9.708;2023-09-30T03:17:41;23.08;;;3.35;;
28437;SDS011;15667;52.376;9.708;2023-09-30T03:20:07;15.63;;;3.38;;
28437;SDS011;15667;52.376;9.708;2023-09-30T03:22:37;14.68;;;3.65;;
28437;SDS011;15667;52.376;9.708;2023-09-30T03:25:04;18.17;;;3.90;;
28437;SDS011;15667;52.376;9.708;2023-09-30T03:27:32;15.52;;;3.72;;
28437;SDS011;15667;52.376;9.708;2023-09-30T03:29:58;18.95;;;3.35;;
28437;SDS011;15667;52.376;9.708;2023-09-30T03:32:26;13.82;;;3.03;;
28437;SDS011;15667;52.376;9.708;2023-09-30T03:34:52;17.85;;;3.55;;
28437;SDS011;15667;52.376;9.708;2023-09-30T03:37:17;17.42;;;3.90;;
28437;SDS011;15667;52.376;9.708;2023-09-30T03:39:43;19.73;;;4.07;;
28437;SDS011;15667;52.376;9.708;2023-09-30T03:42:09;23.55;;;4.95;;
28437;SDS011;15667;52.376;9.708;2023-09-30T03:44:36;14.25;;;3.40;;
28437;SDS011;15667;52.376;9.708;2023-09-30T03:47:03;22.98;;;3.92;;
28437;SDS011;15667;52.376;9.708;2023-09-30T03:49:30;15.13;;;3.80;;
28437;SDS011;15667;52.376;9.708;2023-09-30T03:51:56;13.30;;;3.30;;
28437;SDS011;15667;52.376;9.708;2023-09-30T03:54:22;16.15;;;3.25;;
28437;SDS011;15667;52.376;9.708;2023-09-30T03:56:48;16.45;;;3.75;;
28437;SDS011;15667;52.376;9.708;2023-09-30T03:59:14;14.98;;;3.97;;
28437;SDS011;15667;52.376;9.708;2023-09-30T04:01:41;16.52;;;3.72;;
28437;SDS011;15667;52.376;9.708;2023-09-30T04:04:07;15.77;;;3.80;;
28437;SDS011;15667;52.376;9.708;2023-09-30T04:06:34;17.13;;;3.22;;
28437;SDS011;15667;52.376;9.708;2023-09-30T04:09:03;23.55;;;3.33;;
28437;SDS011;15667;52.376;9.708;2023-09-30T04:11:34;15.57;;;3.25;;
28437;SDS011;15667;52.376;9.708;2023-09-30T04:14:01;20.23;;;3.65;;
28437;SDS011;15667;52.376;9.708;2023-09-30T04:16:26;11.88;;;3.00;;
28437;SDS011;15667;52.376;9.708;2023-09-30T04:18:54;19.52;;;3.65;;
28437;SDS011;15667;52.376;9.708;2023-09-30T04:21:20;20.55;;;3.15;;
28437;SDS011;15667;52.376;9.708;2023-09-30T04:23:46;14.52;;;3.55;;
28437;SDS011;15667;52.376;9.708;2023-09-30T04:26:11;19.42;;;3.28;;
28437;SDS011;15667;52.376;9.708;2023-09-30T04:28:37;14.50;;;4.15;;
28437;SDS011;15667;52.376;9.708;2023-09-30T04:31:03;11.10;;;3.65;;
28437;SDS011;15667;52.376;9.708;2023-09-30T04:33:30;17.27;;;3.65;;
28437;SDS011;15667;52.376;9.708;2023-09-30T04:35:55;15.75;;;4.00;;
28437;SDS011;15667;52.376;9.708;2023-09-30T04:38:21;25.55;;;3.47;;
28437;SDS011;15667;52.376;9.708;2023-09-30T04:40:46;20.80;;;3.95;;
28437;SDS011;15667;52.376;9.708;2023-09-30T04:43:16;14.43;;;3.42;;
28437;SDS011;15667;52.376;9.708;2023-09-30T04:45:42;23.30;;;3.72;;
28437;SDS011;15667;52.376;9.708;2023-09-30T04:48:08;12.73;;;3.40;;
28437;SDS011;15667;52.376;9.708;2023-09-30T04:50:33;17.85;;;3.45;;
28437;SDS011;15667;52.376;9.708;2023-09-30T04:52:59;15.18;;;3.03;;
28437;SDS011;15667;52.376;9.708;2023-09-30T04:55:25;15.27;;;3.22;;
28437;SDS011;15667;52.376;9.708;2023-09-30T04:57:51;15.32;;;3.63;;
28437;SDS011;15667;52.376;9.708;2023-09-30T05:00:18;15.82;;;4.07;;
28437;SDS011;15667;52.376;9.708;2023-09-30T05:02:50;13.73;;;3.08;;
28437;SDS011;15667;52.376;9.708;2023-09-30T05:05:17;18.55;;;3.80;;
28437;SDS011;15667;52.376;9.708;2023-09-30T05:07:43;19.25;;;4.05;;
28437;SDS011;15667;52.376;9.708;2023-09-30T05:10:10;17.88;;;3.55;;
28437;SDS011;15667;52.376;9.708;2023-09-30T05:12:38;16.80;;;3.67;;
28437;SDS011;15667;52.376;9.708;2023-09-30T05:15:06;16.50;;;3.63;;
28437;SDS011;15667;52.376;9.708;2023-09-30T05:17:32;15.93;;;3.22;;
28437;SDS011;15667;52.376;9.708;2023-09-30T05:19:58;19.92;;;3.55;;
28437;SDS011;15667;52.376;9.708;2023-09-30T05:22:24;21.48;;;4.15;;
28437;SDS011;15667;52.376;9.708;2023-09-30T05:24:50;19.85;;;3.85;;
28437;SDS011;15667;52.376;9.708;2023-09-30T05:27:17;18.98;;;4.00;;
28437;SDS011;15667;52.376;9.708;2023-09-30T05:29:43;13.68;;;3.33;;
28437;SDS011;15667;52.376;9.708;2023-09-30T05:32:09;18.42;;;4.05;;
28437;SDS011;15667;52.376;9.708;2023-09-30T05:34:34;20.00;;;3.72;;
28437;SDS011;15667;52.376;9.708;2023-09-30T05:37:00;19.88;;;4.07;;
28437;SDS011;15667;52.376;9.708;2023-09-30T05:39:26;13.75;;;3.35;;
28437;SDS011;15667;52.376;9.708;2023-09-30T05:41:53;21.98;;;4.68;;
28437;SDS011;15667;52.376;9.708;2023-09-30T05:44:20;15.73;;;3.60;;
28437;SDS011;15667;52.376;9.708;2023-09-30T05:46:47;22.38;;;3.60;;
28437;SDS011;15667;52.376;9.708;2023-09-30T05:49:13;12.60;;;3.03;;
28437;SDS011;15667;52.376;9.708;2023-09-30T05:51:42;14.68;;;3.10;;
28437;SDS011;15667;52.376;9.708;2023-09-30T05:54:08;13.63;;;3.40;;
28437;SDS011;15667;52.376;9.708;2023-09-30T05:56:35;17.38;;;3.80;;
28437;SDS011;15667;52.376;9.708;2023-09-30T05:59:02;20.05;;;3.13;;
28437;SDS011;15667;52.376;9.708;2023-09-30T06:01:30;16.25;;;3.38;;
28437;SDS011;15667;52.376;9.708;2023-09-30T06:03:59;12.77;;;2.88;;
28437;SDS011;15667;52.376;9.708;2023-09-30T06:06:25;10.18;;;2.97;;
28437;SDS011;15667;52.376;9.708;2023-09-30T06:08:53;13.43;;;3.45;;
28437;SDS011;15667;52.376;9.708;2023-09-30T06:11:19;14.32;;;3.53;;
28437;SDS011;15667;52.376;9.708;2023-09-30T06:13:49;11.70;;;3.63;;
28437;SDS011;15667;52.376;9.708;2023-09-30T06:16:18;14.43;;;3.55;;
28437;SDS011;15667;52.376;9.708;2023-09-30T06:18:45;19.05;;;4.13;;
28437;SDS011;15667;52.376;9.708;2023-09-30T06:21:14;16.77;;;4.00;;
28437;SDS011;15667;52.376;9.708;2023-09-30T06:24:00;16.08;;;3.55;;
28437;SDS011;15667;52.376;9.708;2023-09-30T06:26:25;16.50;;;3.22;;
28437;SDS011;15667;52.376;9.708;2023-09-30T06:28:53;14.50;;;3.53;;
28437;SDS011;15667;52.376;9.708;2023-09-30T06:31:20;12.57;;;3.25;;
28437;SDS011;15667;52.376;9.708;2023-09-30T06:33:46;22.50;;;3.95;;
28437;SDS011;15667;52.376;9.708;2023-09-30T06:36:12;12.90;;;2.90;;
28437;SDS011;15667;52.376;9.708;2023-09-30T06:38:41;16.90;;;3.42;;
28437;SDS011;15667;52.376;9.708;2023-09-30T06:41:08;13.65;;;3.10;;
28437;SDS011;15667;52.376;9.708;2023-09-30T06:43:43;13.50;;;2.50;;
28437;SDS011;15667;52.376;9.708;2023-09-30T06:46:09;13.10;;;3.22;;
28437;SDS011;15667;52.376;9.708;2023-09-30T06:58:44;10.35;;;2.38;;
28437;SDS011;15667;52.376;9.708;2023-09-30T07:18:31;18.00;;;2.75;;
28437;SDS011;15667;52.376;9.708;2023-09-30T07:23:34;12.00;;;2.45;;
28437;SDS011;15667;52.376;9.708;2023-09-30T07:26:00;12.20;;;2.42;;
28437;SDS011;15667;52.376;9.708;2023-09-30T07:28:25;10.50;;;2.10;;
28437;SDS011;15667;52.376;9.708;2023-09-30T07:30:51;13.88;;;2.85;;
28437;SDS011;15667;52.376;9.708;2023-09-30T07:33:19;15.10;;;4.30;;
28437;SDS011;15667;52.376;9.708;2023-09-30T07:35:46;16.33;;;2.72;;
28437;SDS011;15667;52.376;9.708;2023-09-30T07:38:11;10.40;;;2.53;;
28437;SDS011;15667;52.376;9.708;2023-09-30T07:40:37;9.98;;;2.15;;
28437;SDS011;15667;52.376;9.708;2023-09-30T07:43:03;10.85;;;2.47;;
28437;SDS011;15667;52.376;9.708;2023-09-30T07:45:29;9.45;;;1.95;;
28437;SDS011;15667;52.376;9.708;2023-09-30T07:47:54;10.38;;;2.55;;
28437;SDS011;15667;52.376;9.708;2023-09-30T07:50:20;12.00;;;2.67;;
28437;SDS011;15667;52.376;9.708;2023-09-30T07:52:47;13.18;;;2.45;;
28437;SDS011;15667;52.376;9.708;2023-09-30T07:55:16;12.23;;;2.00;;
28437;SDS011;15667;52.376;9.708;2023-09-30T07:57:42;10.07;;;2.47;;
28437;SDS011;15667;52.376;9.708;2023-09-30T08:02:46;7.70;;;1.90;;
28437;SDS011;15667;52.376;9.708;2023-09-30T08:07:56;11.93;;;1.97;;
28437;SDS011;15667;52.376;9.708;2023-09-30T08:10:23;10.13;;;2.30;;
28437;SDS011;15667;52.376;9.708;2023-09-30T08:12:49;15.07;;;2.05;;
28437;SDS011;15667;52.376;9.708;2023-09-30T08:15:15;8.85;;;1.95;;
28437;SDS011;15667;52.376;9.708;2023-09-30T08:17:42;9.13;;;2.67;;
28437;SDS011;15667;52.376;9.708;2023-09-30T08:20:07;12.32;;;2.28;;
28437;SDS011;15667;52.376;9.708;2023-09-30T08:22:34;8.82;;;1.80;;
28437;SDS011;15667;52.376;9.708;2023-09-30T08:25:00;5.80;;;1.45;;
28437;SDS011;15667;52.376;9.708;2023-09-30T08:27:26;8.80;;;2.10;;
28437;SDS011;15667;52.376;9.708;2023-09-30T08:29:51;14.02;;;2.00;;
28437;SDS011;15667;52.376;9.708;2023-09-30T08:32:17;13.10;;;2.10;;
28437;SDS011;15667;52.376;9.708;2023-09-30T08:34:43;12.77;;;2.22;;
28437;SDS011;15667;52.376;9.708;2023-09-30T08:37:09;14.68;;;3.90;;
28437;SDS011;15667;52.376;9.708;2023-09-30T08:39:41;12.05;;;2.78;;
28437;SDS011;15667;52.376;9.708;2023-09-30T08:42:08;4.80;;;1.10;;
28437;SDS011;15667;52.376;9.708;2023-09-30T08:44:38;7.97;;;1.73;;
28437;SDS011;15667;52.376;9.708;2023-09-30T08:47:06;10.50;;;2.78;;
28437;SDS011;15667;52.376;9.708;2023-09-30T08:49:38;10.18;;;1.58;;
28437;SDS011;15667;52.376;9.708;2023-09-30T08:52:06;13.55;;;2.47;;
28437;SDS011;15667;52.376;9.708;2023-09-30T08:54:34;11.55;;;2.03;;
28437;SDS011;15667;52.376;9.708;2023-09-30T08:57:00;11.48;;;2.10;;
28437;SDS011;15667;52.376;9.708;2023-09-30T08:59:32;7.38;;;2.10;;
28437;SDS011;15667;52.376;9.708;2023-09-30T09:02:01;9.35;;;1.45;;
28437;SDS011;15667;52.376;9.708;2023-09-30T09:04:27;11.20;;;2.42;;
28437;SDS011;15667;52.376;9.708;2023-09-30T09:06:56;12.15;;;2.15;;
28437;SDS011;15667;52.376;9.708;2023-09-30T09:09:21;9.30;;;1.85;;
28437;SDS011;15667;52.376;9.708;2023-09-30T09:11:47;8.57;;;2.38;;
28437;SDS011;15667;52.376;9.708;2023-09-30T09:14:13;7.13;;;1.83;;
28437;SDS011;15667;52.376;9.708;2023-09-30T09:16:53;11.95;;;2.20;;
28437;SDS011;15667;52.376;9.708;2023-09-30T09:19:20;9.90;;;1.90;;
28437;SDS011;15667;52.376;9.708;2023-09-30T09:21:55;10.88;;;1.75;;
28437;SDS011;15667;52.376;9.708;2023-09-30T09:24:41;11.98;;;2.15;;
28437;SDS011;15667;52.376;9.708;2023-09-30T09:27:08;13.30;;;2.35;;
28437;SDS011;15667;52.376;9.708;2023-09-30T09:29:36;10.18;;;2.40;;
28437;SDS011;15667;52.376;9.708;2023-09-30T09:32:06;10.32;;;2.28;;
28437;SDS011;15667;52.376;9.708;2023-09-30T09:34:33;10.75;;;2.67;;
28437;SDS011;15667;52.376;9.708;2023-09-30T09:36:59;11.40;;;2.20;;
28437;SDS011;15667;52.376;9.708;2023-09-30T09:39:29;11.52;;;2.40;;
28437;SDS011;15667;52.376;9.708;2023-09-30T09:41:59;7.57;;;1.90;;
28437;SDS011;15667;52.376;9.708;2023-09-30T09:44:26;10.40;;;1.85;;
28437;SDS011;15667;52.376;9.708;2023-09-30T09:46:52;5.72;;;1.40;;
28437;SDS011;15667;52.376;9.708;2023-09-30T09:49:19;4.45;;;1.30;;
28437;SDS011;15667;52.376;9.708;2023-09-30T09:51:48;8.70;;;1.58;;
28437;SDS011;15667;52.376;9.708;2023-09-30T09:54:21;6.60;;;1.52;;
28437;SDS011;15667;52.376;9.708;2023-09-30T09:57:40;4.78;;;1.50;;
28437;SDS011;15667;52.376;9.708;2023-09-30T09:59:44;9.30;;;1.90;;
28437;SDS011;15667;52.376;9.708;2023-09-30T10:02:15;6.40;;;1.58;;
28437;SDS011;15667;52.376;9.708;2023-09-30T10:04:47;6.80;;;1.75;;
28437;SDS011;15667;52.376;9.708;2023-09-30T10:07:20;9.35;;;1.85;;
28437;SDS011;15667;52.376;9.708;2023-09-30T10:09:50;8.23;;;1.15;;
28437;SDS011;15667;52.376;9.708;2023-09-30T10:12:20;10.73;;;1.80;;
28437;SDS011;15667;52.376;9.708;2023-09-30T10:14:46;5.55;;;1.48;;
28437;SDS011;15667;52.376;9.708;2023-09-30T10:17:20;11.63;;;1.70;;
28437;SDS011;15667;52.376;9.708;2023-09-30T10:20:26;7.63;;;1.92;;
28437;SDS011;15667;52.376;9.708;2023-09-30T10:28:39;5.15;;;1.02;;
28437;SDS011;15667;52.376;9.708;2023-09-30T12:17:53;7.03;;;1.15;;
28437;SDS011;15667;52.376;9.708;2023-09-30T12:21:19;5.60;;;1.45;;
28437;SDS011;15667;52.376;9.708;2023-09-30T12:30:36;5.55;;;1.20;;
28437;SDS011;15667;52.376;9.708;2023-09-30T12:42:53;4.72;;;0.88;;
28437;SDS011;15667;52.376;9.708;2023-09-30T12:49:50;6.85;;;1.15;;
28437;SDS011;15667;52.376;9.708;2023-09-30T13:50:14;5.53;;;1.55;;
28437;SDS011;15667;52.376;9.708;2023-09-30T14:07:11;9.93;;;1.73;;
28437;SDS011;15667;52.376;9.708;2023-09-30T14:10:34;6.93;;;1.55;;
28437;SDS011;15667;52.376;9.708;2023-09-30T14:16:28;6.97;;;1.63;;
28437;SDS011;15667;52.376;9.708;2023-09-30T14:57:33;6.65;;;1.63;;
28437;SDS011;15667;52.376;9.708;2023-09-30T15:04:01;3.50;;;1.25;;
28437;SDS011;15667;52.376;9.708;2023-09-30T15:07:23;6.18;;;1.33;;
28437;SDS011;15667;52.376;9.708;2023-09-30T15:09:50;6.93;;;1.80;;
28437;SDS011;15667;52.376;9.708;2023-09-30T15:12:17;6.65;;;1.63;;
28437;SDS011;15667;52.376;9.708;2023-09-30T15:18:14;8.40;;;1.50;;
28437;SDS011;15667;52.376;9.708;2023-09-30T15:21:44;6.03;;;1.52;;
28437;SDS011;15667;52.376;9.708;2023-09-30T15:28:16;8.98;;;1.70;;
28437;SDS011;15667;52.376;9.708;2023-09-30T15:30:46;7.63;;;1.60;;
28437;SDS011;15667;52.376;9.708;2023-09-30T15:36:55;5.78;;;1.75;;
28437;SDS011;15667;52.376;9.708;2023-09-30T15:43:20;8.90;;;2.28;;
28437;SDS011;15667;52.376;9.708;2023-09-30T15:46:34;4.68;;;1.83;;
28437;SDS011;15667;52.376;9.708;2023-09-30T15:49:06;7.78;;;2.10;;
28437;SDS011;15667;52.376;9.708;2023-09-30T15:51:43;9.85;;;2.63;;
28437;SDS011;15667;52.376;9.708;2023-09-30T15:54:08;5.53;;;2.03;;
28437;SDS011;15667;52.376;9.708;2023-09-30T15:56:34;8.00;;;2.58;;
28437;SDS011;15667;52.376;9.708;2023-09-30T15:59:00;6.45;;;2.10;;
28437;SDS011;15667;52.376;9.708;2023-09-30T16:01:25;8.15;;;2.10;;
28437;SDS011;15667;52.376;9.708;2023-09-30T16:13:27;8.50;;;2.45;;
28437;SDS011;15667;52.376;9.708;2023-09-30T16:15:53;6.68;;;1.83;;
28437;SDS011;15667;52.376;9.708;2023-09-30T16:18:19;6.32;;;2.05;;
28437;SDS011;15667;52.376;9.708;2023-09-30T16:20:44;8.70;;;2.38;;
28437;SDS011;15667;52.376;9.708;2023-09-30T16:23:10;8.23;;;2.20;;
28437;SDS011;15667;52.376;9.708;2023-09-30T16:25:35;5.07;;;2.00;;
28437;SDS011;15667;52.376;9.708;2023-09-30T16:28:01;8.80;;;2.22;;
28437;SDS011;15667;52.376;9.708;2023-09-30T16:30:27;16.20;;;5.97;;
28437;SDS011;15667;52.376;9.708;2023-09-30T16:32:54;8.32;;;3.00;;
28437;SDS011;15667;52.376;9.708;2023-09-30T16:35:23;8.55;;;2.90;;
28437;SDS011;15667;52.376;9.708;2023-09-30T16:37:48;7.22;;;2.35;;
28437;SDS011;15667;52.376;9.708;2023-09-30T16:40:34;8.07;;;3.08;;
28437;SDS011;15667;52.376;9.708;2023-09-30T16:43:02;11.38;;;4.30;;
28437;SDS011;15667;52.376;9.708;2023-09-30T16:45:28;15.85;;;4.47;;
28437;SDS011;15667;52.376;9.708;2023-09-30T16:47:54;9.70;;;3.80;;
28437;SDS011;15667;52.376;9.708;2023-09-30T16:50:19;11.63;;;3.53;;
28437;SDS011;15667;52.376;9.708;2023-09-30T16:52:46;8.30;;;3.70;;
28437;SDS011;15667;52.376;9.708;2023-09-30T16:55:15;11.65;;;3.90;;
28437;SDS011;15667;52.376;9.708;2023-09-30T16:57:44;8.60;;;3.25;;
28437;SDS011;15667;52.376;9.708;2023-09-30T17:00:19;9.50;;;3.13;;
28437;SDS011;15667;52.376;9.708;2023-09-30T17:06:01;11.65;;;3.60;;
28437;SDS011;15667;52.376;9.708;2023-09-30T17:08:53;10.98;;;3.42;;
28437;SDS011;15667;52.376;9.708;2023-09-30T17:14:45;8.30;;;3.20;;
28437;SDS011;15667;52.376;9.708;2023-09-30T17:17:25;9.43;;;2.90;;
28437;SDS011;15667;52.376;9.708;2023-09-30T17:19:55;7.53;;;3.00;;
28437;SDS011;15667;52.376;9.708;2023-09-30T17:22:21;10.35;;;3.30;;
28437;SDS011;15667;52.376;9.708;2023-09-30T17:24:47;12.07;;;3.58;;
28437;SDS011;15667;52.376;9.708;2023-09-30T17:27:13;8.23;;;3.10;;
28437;SDS011;15667;52.376;9.708;2023-09-30T17:30:29;8.25;;;3.40;;
28437;SDS011;15667;52.376;9.708;2023-09-30T17:32:54;7.47;;;3.20;;
28437;SDS011;15667;52.376;9.708;2023-09-30T17:42:21;10.82;;;3.80;;
28437;SDS011;15667;52.376;9.708;2023-09-30T17:49:29;13.13;;;4.32;;
28437;SDS011;15667;52.376;9.708;2023-09-30T17:52:55;16.35;;;4.90;;
28437;SDS011;15667;52.376;9.708;2023-09-30T18:05:38;12.82;;;5.28;;
28437;SDS011;15667;52.376;9.708;2023-09-30T18:08:28;15.63;;;5.38;;
28437;SDS011;15667;52.376;9.708;2023-09-30T18:11:17;12.40;;;5.38;;
28437;SDS011;15667;52.376;9.708;2023-09-30T18:18:06;16.52;;;5.57;;
28437;SDS011;15667;52.376;9.708;2023-09-30T18:21:19;14.80;;;5.50;;
28437;SDS011;15667;52.376;9.708;2023-09-30T18:23:58;12.05;;;5.25;;
28437;SDS011;15667;52.376;9.708;2023-09-30T18:26:44;13.15;;;5.15;;
28437;SDS011;15667;52.376;9.708;2023-09-30T18:29:13;15.15;;;5.60;;
28437;SDS011;15667;52.376;9.708;2023-09-30T18:31:39;15.75;;;5.47;;
28437;SDS011;15667;52.376;9.708;2023-09-30T18:34:04;16.75;;;5.93;;
28437;SDS011;15667;52.376;9.708;2023-09-30T18:36:39;17.60;;;5.88;;
28437;SDS011;15667;52.376;9.708;2023-09-30T18:39:12;14.60;;;5.53;;
28437;SDS011;15667;52.376;9.708;2023-09-30T18:42:05;15.43;;;5.43;;
28437;SDS011;15667;52.376;9.708;2023-09-30T18:44:31;11.35;;;4.57;;
28437;SDS011;15667;52.376;9.708;2023-09-30T18:47:40;12.23;;;4.38;;
28437;SDS011;15667;52.376;9.708;2023-09-30T18:50:37;10.38;;;4.55;;
28437;SDS011;15667;52.376;9.708;2023-09-30T18:53:15;12.55;;;4.40;;
28437;SDS011;15667;52.376;9.708;2023-09-30T18:55:42;11.93;;;4.78;;
28437;SDS011;15667;52.376;9.708;2023-09-30T18:58:11;14.75;;;4.60;;
28437;SDS011;15667;52.376;9.708;2023-09-30T19:00:38;10.75;;;4.90;;
28437;SDS011;15667;52.376;9.708;2023-09-30T19:03:05;41.75;;;16.17;;
28437;SDS011;15667;52.376;9.708;2023-09-30T19:05:32;15.23;;;5.53;;
28437;SDS011;15667;52.376;9.708;2023-09-30T19:07:59;16.17;;;6.03;;
28437;SDS011;15667;52.376;9.708;2023-09-30T19:10:33;13.15;;;5.07;;
28437;SDS011;15667;52.376;9.708;2023-09-30T19:13:02;11.75;;;5.13;;
28437;SDS011;15667;52.376;9.708;2023-09-30T19:15:32;13.25;;;5.78;;
28437;SDS011;15667;52.376;9.708;2023-09-30T19:18:01;14.93;;;5.90;;
28437;SDS011;15667;52.376;9.708;2023-09-30T19:20:32;12.48;;;5.53;;
28437;SDS011;15667;52.376;9.708;2023-09-30T19:22:58;13.05;;;5.20;;
28437;SDS011;15667;52.376;9.708;2023-09-30T19:25:33;12.43;;;5.65;;
28437;SDS011;15667;52.376;9.708;2023-09-30T19:28:10;13.85;;;4.80;;
28437;SDS011;15667;52.376;9.708;2023-09-30T19:30:36;15.57;;;5.07;;
28437;SDS011;15667;52.376;9.708;2023-09-30T19:33:01;19.42;;;5.72;;
28437;SDS011;15667;52.376;9.708;2023-09-30T19:35:39;10.23;;;4.88;;
28437;SDS011;15667;52.376;9.708;2023-09-30T19:38:04;13.80;;;5.38;;
28437;SDS011;15667;52.376;9.708;2023-09-30T19:40:30;12.88;;;5.20;;
28437;SDS011;15667;52.376;9.708;2023-09-30T19:42:56;14.20;;;5.97;;
28437;SDS011;15667;52.376;9.708;2023-09-30T19:45:24;13.07;;;5.32;;
28437;SDS011;15667;52.376;9.708;2023-09-30T19:47:50;12.60;;;5.22;;
28437;SDS011;15667;52.376;9.708;2023-09-30T19:50:15;14.68;;;6.20;;
28437;SDS011;15667;52.376;9.708;2023-09-30T19:52:41;15.77;;;6.10;;
28437;SDS011;15667;52.376;9.708;2023-09-30T19:55:07;13.18;;;5.10;;
28437;SDS011;15667;52.376;9.708;2023-09-30T19:57:32;14.73;;;5.18;;
28437;SDS011;15667;52.376;9.708;2023-09-30T19:59:59;15.18;;;6.53;;
28437;SDS011;15667;52.376;9.708;2023-09-30T20:02:25;14.82;;;6.40;;
28437;SDS011;15667;52.376;9.708;2023-09-30T20:04:51;12.30;;;6.00;;
28437;SDS011;15667;52.376;9.708;2023-09-30T20:07:16;16.02;;;6.40;;
28437;SDS011;15667;52.376;9.708;2023-09-30T20:09:42;11.25;;;5.82;;
28437;SDS011;15667;52.376;9.708;2023-09-30T20:12:08;16.75;;;5.30;;
28437;SDS011;15667;52.376;9.708;2023-09-30T20:14:36;16.02;;;5.07;;
28437;SDS011;15667;52.376;9.708;2023-09-30T20:17:02;26.42;;;10.82;;
28437;SDS011;15667;52.376;9.708;2023-09-30T20:19:28;20.60;;;9.15;;
28437;SDS011;15667;52.376;9.708;2023-09-30T20:22:03;12.32;;;5.22;;
28437;SDS011;15667;52.376;9.708;2023-09-30T20:24:43;10.73;;;4.80;;
28437;SDS011;15667;52.376;9.708;2023-09-30T20:27:26;11.48;;;4.43;;
28437;SDS011;15667;52.376;9.708;2023-09-30T20:29:53;15.05;;;7.20;;
28437;SDS011;15667;52.376;9.708;2023-09-30T20:32:23;23.50;;;8.70;;
28437;SDS011;15667;52.376;9.708;2023-09-30T20:34:54;10.02;;;5.22;;
28437;SDS011;15667;52.376;9.708;2023-09-30T20:37:19;12.10;;;5.22;;